Time;durP1;ratioP1;P1;durP2;ratioP2;P2;SDS_P1;SDS_P2;PMS_P1;PMS_P2;Temp;Humidity;BMP_temperature;BMP_pressure;BME280_temperature;BME280_humidity;BME280_pressure;Samples;Min_cycle;Max_cycle;Signal;HPM_P1;HPM_P2
2021/09/05 00:01:35;;;;;;;18.10;5.40;;;;;;;11.88;54.52;99548.20;26894;1221;3029057;-63
2021/09/05 00:04:04;;;;;;;19.30;6.10;;;;;;;11.87;54.47;99545.09;26934;1224;3047686;-67
2021/09/05 00:06:32;;;;;;;18.00;4.80;;;;;;;11.80;54.12;99542.21;26922;1224;3026562;-66
2021/09/05 00:09:03;;;;;;;19.60;5.10;;;;;;;11.77;54.33;99546.46;26927;1221;3069733;-67
2021/09/05 00:11:33;;;;;;;17.60;4.90;;;;;;;11.80;54.42;99552.07;26948;1221;3026273;-67
2021/09/05 00:14:22;;;;;;;12.00;4.10;;;;;;;11.77;54.03;99549.25;26896;1227;3054763;-66
2021/09/05 00:16:53;;;;;;;12.10;3.50;;;;;;;11.74;53.83;99550.16;26926;1224;3025963;-63
2021/09/05 00:19:24;;;;;;;12.60;3.60;;;;;;;11.68;54.01;99554.75;26922;1221;3026085;-65
2021/09/05 00:21:53;;;;;;;10.90;4.20;;;;;;;11.71;54.09;99557.19;26944;1221;3027962;-68
2021/09/05 00:24:23;;;;;;;15.10;5.60;;;;;;;11.64;54.07;99563.03;26936;1221;3051472;-65
2021/09/05 00:26:52;;;;;;;24.70;9.00;;;;;;;11.66;54.12;99563.45;26921;1226;3028356;-67
2021/09/05 00:29:21;;;;;;;19.20;8.30;;;;;;;11.62;54.23;99567.59;26925;1219;3054145;-67
2021/09/05 00:31:52;;;;;;;21.30;8.00;;;;;;;11.58;54.34;99570.95;26903;1221;3025941;-70
2021/09/05 00:34:22;;;;;;;15.40;7.10;;;;;;;11.60;54.29;99565.23;26939;1220;3026497;-65
2021/09/05 00:36:54;;;;;;;15.70;5.90;;;;;;;11.59;53.99;99566.19;26924;1219;3028621;-65
2021/09/05 00:39:26;;;;;;;16.10;5.20;;;;;;;11.59;54.13;99570.75;26947;1225;3026201;-65
2021/09/05 00:41:55;;;;;;;8.90;4.40;;;;;;;11.57;54.02;99566.63;26921;1226;3026060;-68
2021/09/05 00:44:24;;;;;;;12.40;4.90;;;;;;;11.53;54.22;99567.23;26935;1221;3025928;-65
2021/09/05 00:46:53;;;;;;;12.50;4.70;;;;;;;11.52;54.49;99567.11;26916;1224;3054659;-66
2021/09/05 00:49:22;;;;;;;13.20;4.70;;;;;;;11.51;54.40;99567.91;26917;1225;3028580;-65
2021/09/05 00:51:52;;;;;;;8.60;3.80;;;;;;;11.52;54.38;99566.59;26891;1221;3026490;-66
2021/09/05 00:54:22;;;;;;;7.70;4.60;;;;;;;11.56;54.29;99568.83;26933;1224;3027055;-66
2021/09/05 00:56:51;;;;;;;9.90;4.90;;;;;;;11.57;54.52;99571.90;26930;1220;3027759;-65
2021/09/05 00:59:25;;;;;;;;;;;;;;;11.53;54.63;99571.29;26948;1224;3070687;-69
2021/09/05 01:01:56;;;;;;;9.80;3.90;;;;;;;11.39;55.04;99571.61;26939;1221;3026463;-73
2021/09/05 01:04:25;;;;;;;9.60;3.80;;;;;;;11.33;55.14;99576.36;26963;1228;3026362;-63
2021/09/05 01:06:56;;;;;;;8.40;3.50;;;;;;;11.31;55.51;99577.05;26926;1224;3027047;-64
2021/09/05 01:09:29;;;;;;;9.60;4.10;;;;;;;11.30;55.45;99574.88;26913;1223;3026124;-66
2021/09/05 01:12:06;;;;;;;14.20;4.30;;;;;;;11.30;55.72;99578.14;26898;1225;3051565;-65
2021/09/05 01:14:36;;;;;;;16.50;5.00;;;;;;;11.27;55.81;99585.69;26948;1227;3026640;-62
2021/09/05 01:17:10;;;;;;;19.40;6.80;;;;;;;11.23;56.04;99586.65;26907;1221;3025779;-67
2021/09/05 01:19:50;;;;;;;24.60;9.00;;;;;;;11.17;56.52;99590.88;26913;1226;3067623;-66
2021/09/05 01:22:38;;;;;;;25.10;9.10;;;;;;;11.12;56.51;99592.42;26888;1224;3048299;-65
2021/09/05 01:25:13;;;;;;;23.60;10.20;;;;;;;11.07;56.79;99596.92;26947;1219;3054177;-67
2021/09/05 01:28:01;;;;;;;29.90;12.30;;;;;;;11.04;57.18;99595.17;26948;1227;3052626;-64
2021/09/05 01:31:08;;;;;;;28.80;12.70;;;;;;;10.99;57.49;99600.70;26946;1229;3059091;-67
2021/09/05 01:33:56;;;;;;;27.70;11.70;;;;;;;10.92;57.65;99603.77;26905;1221;3049077;-65
2021/09/05 01:36:52;;;;;;;19.40;8.80;;;;;;;10.88;57.64;99600.34;26887;1227;3051763;-68
2021/09/05 01:39:40;;;;;;;14.10;5.80;;;;;;;10.86;57.33;99603.23;26931;1225;3051434;-69
2021/09/05 01:42:35;;;;;;;17.90;7.10;;;;;;;10.85;57.32;99601.39;26901;1224;3071374;-65
2021/09/05 01:45:25;;;;;;;17.50;6.40;;;;;;;10.82;57.10;99611.35;26934;1224;3051085;-63
2021/09/05 01:48:17;;;;;;;12.80;6.00;;;;;;;10.77;57.69;99617.44;26896;1225;3052447;-65
2021/09/05 01:51:02;;;;;;;13.00;5.30;;;;;;;10.74;57.80;99619.17;26910;1224;3050691;-66
2021/09/05 01:54:04;;;;;;;13.70;5.90;;;;;;;10.79;57.30;99611.88;26933;1227;3058892;-67
2021/09/05 01:56:52;;;;;;;15.80;6.30;;;;;;;10.75;57.56;99618.10;26900;1225;3052032;-67
2021/09/05 01:59:50;;;;;;;22.10;7.70;;;;;;;10.73;57.65;99617.98;26916;1221;3055208;-66
2021/09/05 02:02:38;;;;;;;33.60;12.00;;;;;;;10.70;57.75;99620.13;26974;1220;3050281;-64
2021/09/05 02:05:23;;;;;;;37.30;12.80;;;;;;;10.71;57.73;99624.80;26920;1221;3068984;-64
2021/09/05 02:08:11;;;;;;;38.40;12.10;;;;;;;10.73;57.08;99622.38;26925;1219;3049226;-67
2021/09/05 02:10:51;;;;;;;16.10;5.80;;;;;;;10.76;56.70;99620.48;26929;1228;3052257;-65
2021/09/05 02:13:36;;;;;;;20.40;7.80;;;;;;;10.85;55.89;99620.63;26901;1224;3054512;-67
2021/09/05 02:16:24;;;;;;;30.40;11.00;;;;;;;10.91;55.56;99625.37;26924;1224;3058579;-64
2021/09/05 02:19:27;;;;;;;32.60;12.60;;;;;;;10.97;55.55;99628.54;26871;1228;3051203;-65
2021/09/05 02:22:15;;;;;;;31.30;11.50;;;;;;;10.97;55.38;99632.05;26916;1221;3051257;-65
2021/09/05 02:25:03;;;;;;;25.60;9.60;;;;;;;10.86;56.65;99640.26;26915;1220;3053707;-68
2021/09/05 02:27:52;;;;;;;31.60;11.10;;;;;;;10.81;57.08;99641.39;26922;1224;3070845;-67
2021/09/05 02:30:47;;;;;;;24.80;9.10;;;;;;;10.74;57.46;99640.24;26914;1224;3048651;-66
2021/09/05 02:33:35;;;;;;;34.00;12.30;;;;;;;10.68;57.52;99645.65;26904;1219;3054909;-63
2021/09/05 02:36:29;;;;;;;28.50;10.80;;;;;;;10.67;57.58;99645.73;26942;1222;3054908;-67
2021/09/05 02:39:19;;;;;;;30.30;10.70;;;;;;;10.67;57.61;99654.10;26921;1225;3058826;-64
2021/09/05 02:42:12;;;;;;;29.70;9.70;;;;;;;10.68;57.70;99657.92;26902;1221;3050044;-66
2021/09/05 02:45:01;;;;;;;29.60;9.70;;;;;;;10.63;57.85;99659.60;26941;1225;3053170;-66
2021/09/05 02:47:59;;;;;;;29.80;10.10;;;;;;;10.67;57.65;99662.17;26897;1224;3053998;-67
2021/09/05 02:50:48;;;;;;;26.70;9.70;;;;;;;10.70;57.41;99666.04;26949;1225;3068470;-65
2021/09/05 02:53:36;;;;;;;54.20;13.70;;;;;;;10.68;57.67;99667.17;26934;1225;3049147;-66
2021/09/05 02:56:19;;;;;;;33.60;8.90;;;;;;;10.69;57.96;99667.33;26917;1227;3052461;-65
2021/09/05 02:59:07;;;;;;;24.90;9.30;;;;;;;10.65;58.26;99668.97;26919;1224;3052133;-64
2021/09/05 03:02:05;;;;;;;59.20;20.60;;;;;;;10.56;58.67;99675.23;26903;1224;3058802;-67
2021/09/05 03:04:34;;;;;;;68.70;22.70;;;;;;;10.58;58.52;99674.77;26922;1219;3026099;-64
2021/09/05 03:07:22;;;;;;;37.40;13.90;;;;;;;10.49;58.86;99682.11;26928;1227;3056507;-66
2021/09/05 03:10:05;;;;;;;26.80;10.30;;;;;;;10.48;59.08;99682.55;26904;1225;3056369;-66
2021/09/05 03:12:59;;;;;;;21.70;6.90;;;;;;;10.39;59.47;99683.70;26912;1221;3050636;-66
2021/09/05 03:15:54;;;;;;;15.00;5.60;;;;;;;10.33;59.55;99685.63;26897;1227;3053282;-64
2021/09/05 03:19:15;;;;;;;11.00;3.90;;;;;;;10.29;59.31;99688.97;26909;1224;3051309;-67
2021/09/05 03:22:01;;;;;;;12.50;4.70;;;;;;;10.33;59.59;99694.52;26910;1225;3071165;-67
2021/09/05 03:24:56;;;;;;;15.90;5.60;;;;;;;10.36;58.91;99692.66;26927;1221;3051450;-63
2021/09/05 03:27:41;;;;;;;15.10;5.50;;;;;;;10.37;58.70;99700.46;26942;1224;3054414;-63
2021/09/05 03:30:43;;;;;;;11.20;4.70;;;;;;;10.33;58.63;99703.52;26967;1225;3054772;-66
2021/09/05 03:33:41;;;;;;;11.00;4.60;;;;;;;10.29;58.88;99707.39;26921;1222;3056392;-64
2021/09/05 03:36:36;;;;;;;10.50;5.00;;;;;;;10.27;58.85;99712.19;26921;1225;3049750;-65
2021/09/05 03:39:14;;;;;;;16.70;6.70;;;;;;;10.30;58.58;99711.02;26921;1224;3052659;-69
2021/09/05 03:41:59;;;;;;;22.50;9.80;;;;;;;10.33;58.14;99710.13;26911;1224;3053090;-64
2021/09/05 03:45:00;;;;;;;21.40;10.60;;;;;;;10.36;57.13;99715.75;26895;1225;3071158;-65
2021/09/05 03:48:09;;;;;;;33.00;14.80;;;;;;;10.47;56.05;99712.51;26865;1225;3050975;-66
2021/09/05 03:51:01;;;;;;;35.20;12.20;;;;;;;10.58;56.37;99715.27;26885;1225;3054945;-65
2021/09/05 03:53:31;;;;;;;33.40;12.40;;;;;;;10.62;56.03;99715.88;26859;1225;3026156;-65
2021/09/05 03:56:00;;;;;;;24.60;8.90;;;;;;;10.65;55.83;99715.73;26840;1230;3026352;-64
2021/09/05 03:58:32;;;;;;;18.50;8.90;;;;;;;10.73;55.46;99719.66;26888;1223;3051350;-63
2021/09/05 04:01:01;;;;;;;19.10;8.20;;;;;;;10.78;55.18;99722.33;26881;1229;3026062;-66
2021/09/05 04:03:30;;;;;;;21.10;9.00;;;;;;;10.80;55.05;99724.01;26873;1230;3048063;-68
2021/09/05 04:06:02;;;;;;;20.50;8.00;;;;;;;10.81;55.40;99723.26;26870;1223;3026543;-64
2021/09/05 04:08:39;;;;;;;15.50;7.50;;;;;;;10.79;55.53;99726.52;26852;1227;3025927;-66
2021/09/05 04:11:08;;;;;;;18.90;7.20;;;;;;;10.79;55.67;99729.45;26890;1221;3055411;-65
2021/09/05 04:13:37;;;;;;;19.70;7.80;;;;;;;10.73;56.43;99733.48;26849;1223;3026680;-66
2021/09/05 04:16:09;;;;;;;20.70;7.20;;;;;;;10.72;56.47;99736.70;26900;1225;3054226;-62
2021/09/05 04:18:38;;;;;;;21.30;8.40;;;;;;;10.75;56.81;99737.55;26893;1227;3026451;-65
2021/09/05 04:21:07;;;;;;;37.70;13.40;;;;;;;10.76;57.31;99750.30;26889;1220;3049894;-64
2021/09/05 04:23:37;;;;;;;20.60;6.80;;;;;;;10.62;57.75;99751.95;26941;1219;3026022;-65
2021/09/05 04:26:05;;;;;;;15.20;5.20;;;;;;;10.53;57.50;99749.31;26920;1221;3048643;-62
2021/09/05 04:28:34;;;;;;;12.40;4.60;;;;;;;10.45;57.95;99752.21;26921;1224;3026085;-67
2021/09/05 04:31:03;;;;;;;12.50;4.40;;;;;;;10.45;58.29;99753.10;26961;1225;3067623;-66
2021/09/05 04:33:32;;;;;;;11.50;4.10;;;;;;;10.52;58.07;99754.48;26909;1219;3026061;-65
2021/09/05 04:36:03;;;;;;;5.60;2.70;;;;;;;10.43;58.64;99752.16;26904;1219;3053282;-64
2021/09/05 04:38:32;;;;;;;9.30;3.10;;;;;;;10.58;58.51;99750.25;26920;1219;3026481;-64
2021/09/05 04:41:01;;;;;;;6.60;2.80;;;;;;;10.54;58.23;99749.95;26897;1219;3025809;-65
2021/09/05 04:43:31;;;;;;;8.10;2.80;;;;;;;10.47;58.53;99753.88;26899;1224;3049397;-64
2021/09/05 04:45:59;;;;;;;8.20;2.90;;;;;;;10.49;58.70;99755.13;26888;1220;3026307;-65
2021/09/05 04:48:29;;;;;;;10.60;2.70;;;;;;;10.54;58.40;99753.30;26930;1224;3026198;-68
2021/09/05 04:50:59;;;;;;;7.10;2.30;;;;;;;10.52;58.28;99754.79;26947;1221;3053002;-63
2021/09/05 04:53:30;;;;;;;11.20;2.60;;;;;;;10.56;58.00;99758.61;26892;1224;3026427;-68
2021/09/05 04:55:59;;;;;;;5.80;3.00;;;;;;;10.46;58.64;99763.91;26931;1219;3025909;-64
2021/09/05 04:58:28;;;;;;;8.80;2.60;;;;;;;10.42;58.56;99765.86;26936;1219;3050840;-64
2021/09/05 05:00:57;;;;;;;7.20;3.50;;;;;;;10.56;58.10;99762.28;26888;1221;3027424;-66
2021/09/05 05:03:26;;;;;;;8.40;3.40;;;;;;;10.64;57.31;99761.48;26904;1225;3054472;-68
2021/09/05 05:05:55;;;;;;;5.90;2.90;;;;;;;10.65;56.81;99763.35;26967;1219;3026498;-64
2021/09/05 05:08:26;;;;;;;9.80;4.00;;;;;;;10.71;56.30;99766.89;26931;1227;3047339;-65
2021/09/05 05:10:55;;;;;;;9.30;3.80;;;;;;;10.73;55.77;99770.77;26927;1219;3025489;-64
2021/09/05 05:13:24;;;;;;;8.10;3.40;;;;;;;10.81;56.08;99768.62;26921;1219;3057751;-63
2021/09/05 05:15:56;;;;;;;9.50;3.90;;;;;;;10.93;55.98;99768.81;26909;1225;3027024;-64
2021/09/05 05:18:31;;;;;;;12.80;5.20;;;;;;;11.04;55.28;99771.52;26925;1219;3054994;-64
2021/09/05 05:21:00;;;;;;;18.80;6.40;;;;;;;11.19;55.01;99768.35;26951;1224;3025857;-69
2021/09/05 05:23:29;;;;;;;20.00;8.40;;;;;;;11.16;54.88;99772.55;26913;1224;3050801;-67
2021/09/05 05:25:58;;;;;;;21.70;9.40;;;;;;;11.24;54.87;99773.65;26897;1219;3028902;-64
2021/09/05 05:28:27;;;;;;;25.30;10.00;;;;;;;11.31;55.17;99770.65;26917;1219;3026947;-67
2021/09/05 05:30:58;;;;;;;20.60;8.10;;;;;;;11.38;54.32;99766.54;26925;1221;3048157;-66
2021/09/05 05:33:27;;;;;;;17.80;7.70;;;;;;;11.58;53.71;99763.27;26905;1225;3027114;-64
2021/09/05 05:35:56;;;;;;;17.50;6.90;;;;;;;11.66;53.37;99764.67;26940;1219;3027091;-63
2021/09/05 05:38:25;;;;;;;18.40;7.40;;;;;;;11.71;53.04;99765.08;26957;1219;3049135;-64
2021/09/05 05:40:54;;;;;;;21.20;6.70;;;;;;;11.78;52.98;99764.01;26938;1224;3025861;-64
2021/09/05 05:43:23;;;;;;;13.80;5.50;;;;;;;11.87;52.69;99768.48;26910;1226;3057620;-64
2021/09/05 05:45:52;;;;;;;12.90;5.20;;;;;;;12.03;52.13;99767.78;26923;1219;3026463;-67
2021/09/05 05:48:21;;;;;;;12.30;4.80;;;;;;;12.16;51.25;99768.16;26970;1225;3051884;-66
2021/09/05 05:50:52;;;;;;;8.70;3.70;;;;;;;12.31;50.50;99770.06;26920;1219;3028853;-67
2021/09/05 05:53:21;;;;;;;5.50;2.80;;;;;;;12.41;49.65;99770.83;26942;1219;3052051;-63
2021/09/05 05:55:50;;;;;;;4.70;2.00;;;;;;;12.41;49.20;99776.29;26974;1219;3026319;-66
2021/09/05 05:58:19;;;;;;;6.30;2.90;;;;;;;12.43;48.72;99777.57;26910;1219;3047818;-66
2021/09/05 06:00:49;;;;;;;9.70;2.70;;;;;;;12.53;48.38;99782.20;26897;1220;3025855;-65
2021/09/05 06:03:17;;;;;;;8.50;3.00;;;;;;;12.62;48.41;99785.30;26928;1219;3026566;-63
2021/09/05 06:05:47;;;;;;;7.90;3.00;;;;;;;12.68;48.56;99784.95;26916;1224;3048029;-66
2021/09/05 06:08:16;;;;;;;9.50;3.20;;;;;;;12.82;48.42;99789.85;26946;1225;3027523;-69
2021/09/05 06:11:05;;;;;;;13.10;4.00;;;;;;;12.96;47.69;99789.98;26939;1224;3052542;-64
2021/09/05 06:13:54;;;;;;;10.60;4.90;;;;;;;12.98;48.29;99794.07;26898;1227;3056240;-64
2021/09/05 06:16:23;;;;;;;12.40;5.10;;;;;;;13.17;48.37;99798.84;26921;1219;3027920;-68
2021/09/05 06:19:01;;;;;;;17.60;6.00;;;;;;;13.26;47.83;99798.73;26927;1227;3054893;-63
2021/09/05 06:21:39;;;;;;;11.10;5.10;;;;;;;13.34;46.93;99798.76;26925;1225;3058775;-68
2021/09/05 06:24:08;;;;;;;11.10;5.50;;;;;;;13.43;46.50;99794.99;26921;1219;3027371;-66
2021/09/05 06:26:37;;;;;;;14.20;5.90;;;;;;;13.44;46.23;99798.31;26962;1219;3026009;-65
2021/09/05 06:29:07;;;;;;;14.50;6.60;;;;;;;13.48;45.98;99806.14;26948;1219;3058098;-69
2021/09/05 06:31:36;;;;;;;10.10;4.30;;;;;;;13.60;46.50;99804.25;26917;1219;3028039;-67
2021/09/05 06:34:05;;;;;;;15.90;4.70;;;;;;;13.61;44.93;99808.27;26896;1219;3052725;-66
2021/09/05 06:36:33;;;;;;;8.40;3.70;;;;;;;13.62;44.66;99811.17;26941;1219;3026283;-67
2021/09/05 06:39:03;;;;;;;8.50;3.30;;;;;;;13.67;44.32;99809.98;26919;1225;3053755;-67
2021/09/05 06:41:32;;;;;;;4.90;2.30;;;;;;;13.84;44.42;99815.68;26983;1219;3025973;-63
2021/09/05 06:44:01;;;;;;;6.90;2.20;;;;;;;13.89;44.36;99810.69;26907;1224;3048291;-64
2021/09/05 06:46:30;;;;;;;6.90;2.40;;;;;;;14.03;44.47;99806.09;26951;1225;3025851;-63
2021/09/05 06:48:59;;;;;;;10.00;3.20;;;;;;;14.18;44.41;99809.08;26934;1219;3070286;-65
2021/09/05 06:51:28;;;;;;;8.20;3.80;;;;;;;14.24;43.55;99811.30;26943;1219;3026257;-67
2021/09/05 06:53:57;;;;;;;11.80;3.50;;;;;;;14.33;43.59;99813.87;26963;1219;3026214;-66
2021/09/05 06:56:26;;;;;;;10.40;3.30;;;;;;;14.49;43.27;99812.70;26916;1221;3067350;-66
2021/09/05 06:58:54;;;;;;;8.90;3.40;;;;;;;14.55;43.21;99816.52;26929;1224;3026070;-69
2021/09/05 07:01:24;;;;;;;6.00;2.60;;;;;;;14.59;43.08;99812.34;26917;1219;3053078;-65
2021/09/05 07:03:53;;;;;;;7.10;2.20;;;;;;;14.73;42.98;99808.89;26925;1219;3028518;-66
2021/09/05 07:06:21;;;;;;;4.90;2.10;;;;;;;14.87;42.75;99812.98;26942;1219;3052125;-65
2021/09/05 07:08:51;;;;;;;4.00;1.50;;;;;;;14.88;42.57;99816.61;26916;1223;3026232;-66
2021/09/05 07:11:20;;;;;;;3.20;1.60;;;;;;;14.96;42.10;99818.33;26928;1219;3026291;-65
2021/09/05 07:13:49;;;;;;;3.00;1.60;;;;;;;14.97;42.70;99815.98;26965;1224;3053737;-65
2021/09/05 07:16:18;;;;;;;3.40;1.30;;;;;;;15.05;42.94;99819.80;26913;1219;3027241;-64
2021/09/05 07:18:48;;;;;;;4.20;1.40;;;;;;;14.88;42.28;99821.98;26933;1225;3048478;-65
2021/09/05 07:21:17;;;;;;;2.70;1.30;;;;;;;14.87;42.20;99822.71;26950;1219;3026395;-62
2021/09/05 07:23:46;;;;;;;3.70;1.50;;;;;;;14.73;42.41;99823.02;26939;1219;3057338;-64
2021/09/05 07:26:15;;;;;;;2.50;1.20;;;;;;;14.81;42.60;99829.33;26916;1225;3027854;-64
2021/09/05 07:28:44;;;;;;;4.90;1.60;;;;;;;14.84;42.99;99830.70;26918;1219;3051176;-67
2021/09/05 07:31:13;;;;;;;5.80;1.90;;;;;;;14.91;43.11;99827.01;26956;1219;3025885;-64
2021/09/05 07:33:43;;;;;;;5.60;1.80;;;;;;;15.15;43.13;99828.29;26945;1219;3054536;-70
2021/09/05 07:36:12;;;;;;;5.90;1.90;;;;;;;15.35;43.03;99828.70;26942;1219;3027482;-65
2021/09/05 07:38:40;;;;;;;3.20;2.00;;;;;;;15.46;41.66;99833.18;26911;1225;3046790;-65
2021/09/05 07:41:10;;;;;;;5.10;2.10;;;;;;;15.32;41.23;99833.36;26976;1219;3026058;-68
2021/09/05 07:43:41;;;;;;;2.90;1.40;;;;;;;15.29;41.73;99832.31;26937;1219;3069003;-64
2021/09/05 07:46:10;;;;;;;4.60;1.80;;;;;;;15.27;41.48;99834.06;26969;1219;3026049;-66
2021/09/05 07:48:39;;;;;;;4.00;1.40;;;;;;;15.42;41.73;99822.58;26937;1219;3026341;-66
2021/09/05 07:51:08;;;;;;;3.20;1.60;;;;;;;15.64;41.14;99827.20;26960;1219;3070184;-68
2021/09/05 07:53:37;;;;;;;1.80;1.20;;;;;;;15.68;40.27;99831.92;26947;1219;3026357;-67
2021/09/05 07:56:06;;;;;;;6.60;1.30;;;;;;;15.82;39.84;99830.55;26990;1219;3049914;-61
2021/09/05 07:58:34;;;;;;;2.10;1.30;;;;;;;16.01;40.09;99830.52;26947;1219;3028638;-65
2021/09/05 08:01:03;;;;;;;3.00;1.30;;;;;;;16.05;39.82;99829.65;26950;1227;3054089;-65
2021/09/05 08:03:37;;;;;;;3.00;1.10;;;;;;;16.29;39.49;99828.26;26963;1224;3026820;-66
2021/09/05 08:06:07;;;;;;;4.00;1.60;;;;;;;16.43;38.24;99827.02;26927;1219;3026120;-66
2021/09/05 08:08:36;;;;;;;7.40;1.90;;;;;;;16.51;39.01;99830.63;26919;1219;3028462;-66
2021/09/05 08:11:06;;;;;;;4.60;2.20;;;;;;;16.04;39.74;99842.75;26946;1219;3050202;-62
2021/09/05 08:13:35;;;;;;;3.50;1.50;;;;;;;15.86;39.93;99836.91;26914;1225;3026432;-66
2021/09/05 08:16:05;;;;;;;2.80;1.40;;;;;;;15.94;39.82;99834.22;26997;1219;3026326;-67
2021/09/05 08:18:45;;;;;;;3.90;1.20;;;;;;;16.19;39.24;99829.45;26944;1219;3053282;-67
2021/09/05 08:21:14;;;;;;;4.50;1.00;;;;;;;16.27;38.51;99826.35;26970;1219;3026030;-64
2021/09/05 08:23:44;;;;;;;2.30;1.10;;;;;;;16.22;36.13;99826.76;26913;1219;3052173;-63
2021/09/05 08:26:13;;;;;;;1.60;0.70;;;;;;;16.03;35.30;99828.54;26918;1219;3025864;-69
2021/09/05 08:28:42;;;;;;;3.40;1.00;;;;;;;15.91;34.40;99832.11;26910;1219;3026482;-67
2021/09/05 08:31:11;;;;;;;3.40;0.80;;;;;;;16.21;34.84;99828.41;26966;1219;3026320;-66
2021/09/05 08:33:40;;;;;;;2.50;0.90;;;;;;;16.43;35.08;99827.17;26944;1219;3052828;-63
2021/09/05 08:36:09;;;;;;;1.40;0.70;;;;;;;16.39;34.21;99829.07;26918;1219;3025874;-62
2021/09/05 08:38:38;;;;;;;3.40;0.70;;;;;;;16.59;33.98;99826.77;26935;1219;3051190;-69
2021/09/05 08:41:07;;;;;;;2.30;0.90;;;;;;;16.80;33.88;99826.94;26941;1219;3026093;-67
2021/09/05 08:43:37;;;;;;;1.80;0.90;;;;;;;16.84;33.97;99823.04;26929;1219;3049209;-66
2021/09/05 08:46:06;;;;;;;2.50;0.90;;;;;;;16.97;34.33;99827.20;26995;1219;3025793;-65
2021/09/05 08:48:36;;;;;;;4.90;1.10;;;;;;;16.86;34.40;99828.02;26924;1219;3026387;-62
2021/09/05 08:51:05;;;;;;;1.70;0.90;;;;;;;16.85;34.35;99829.72;26896;1219;3027151;-66
2021/09/05 08:53:34;;;;;;;1.50;0.80;;;;;;;16.94;33.16;99828.65;26923;1219;3028789;-66
2021/09/05 08:56:03;;;;;;;1.70;0.90;;;;;;;17.08;32.76;99836.85;26955;1219;3049743;-65
2021/09/05 08:58:32;;;;;;;2.60;1.00;;;;;;;17.15;32.17;99832.96;26896;1219;3026400;-64
2021/09/05 09:01:26;;;;;;;2.00;0.80;;;;;;;17.35;32.03;99828.65;26901;1219;3054746;-65
2021/09/05 09:04:12;;;;;;;1.80;0.80;;;;;;;17.73;32.13;99824.92;26907;1219;3050157;-62
2021/09/05 09:07:14;;;;;;;1.70;0.90;;;;;;;18.08;31.58;99826.59;26919;1220;3070538;-64
2021/09/05 09:09:59;;;;;;;1.10;0.70;;;;;;;18.08;31.20;99827.45;26930;1219;3049333;-62
2021/09/05 09:12:40;;;;;;;1.60;0.60;;;;;;;17.23;31.69;99842.51;26977;1219;3054686;-65
2021/09/05 09:15:30;;;;;;;6.80;0.90;;;;;;;17.36;32.20;99836.91;26932;1219;3053041;-61
2021/09/05 09:18:04;;;;;;;1.70;0.70;;;;;;;17.23;32.15;99839.91;26974;1219;3026289;-65
2021/09/05 09:20:33;;;;;;;;;;;;;;;17.17;31.39;99844.98;26927;1219;3048892;-69
2021/09/05 09:23:14;;;;;;;1.40;0.70;;;;;;;17.21;30.88;99837.40;26940;1219;3026488;-64
2021/09/05 09:25:55;;;;;;;4.60;0.90;;;;;;;17.31;31.03;99823.85;26934;1222;3058829;-63
2021/09/05 09:28:48;;;;;;;1.30;0.70;;;;;;;17.49;31.68;99826.23;26948;1219;3049574;-68
2021/09/05 09:31:22;;;;;;;2.40;1.10;;;;;;;17.97;31.41;99826.61;26921;1219;3054284;-64
2021/09/05 09:33:53;;;;;;;3.90;0.80;;;;;;;18.35;30.89;99821.75;26967;1219;3051038;-64
2021/09/05 09:36:26;;;;;;;1.40;0.80;;;;;;;18.43;30.42;99831.00;26930;1219;3027845;-64
2021/09/05 09:39:06;;;;;;;2.10;0.70;;;;;;;17.99;30.45;99835.36;26957;1219;3050851;-63
2021/09/05 09:41:37;;;;;;;2.40;1.00;;;;;;;17.83;30.92;99838.41;26941;1219;3054323;-66
2021/09/05 09:44:08;;;;;;;2.00;1.00;;;;;;;17.78;31.12;99839.41;26935;1219;3025597;-65
2021/09/05 09:46:38;;;;;;;3.10;0.80;;;;;;;17.64;31.51;99839.29;26926;1219;3028125;-65
2021/09/05 09:49:09;;;;;;;3.00;0.80;;;;;;;17.42;31.77;99844.86;26921;1219;3026483;-64
2021/09/05 09:51:38;;;;;;;1.70;0.90;;;;;;;17.50;31.63;99844.56;26910;1219;3025770;-66
2021/09/05 09:54:09;;;;;;;2.20;1.00;;;;;;;17.73;31.56;99844.75;26931;1219;3026174;-65
2021/09/05 09:56:38;;;;;;;3.50;1.20;;;;;;;17.74;31.71;99860.47;26880;1219;3026358;-64
2021/09/05 09:59:07;;;;;;;5.20;1.00;;;;;;;17.57;31.26;99848.98;26909;1219;3054612;-63
2021/09/05 10:01:37;;;;;;;2.60;1.40;;;;;;;17.76;31.38;99846.80;26949;1227;3025671;-66
2021/09/05 10:04:05;;;;;;;3.40;1.10;;;;;;;17.97;31.73;99847.37;26924;1219;3048124;-63
2021/09/05 10:06:35;;;;;;;5.30;0.90;;;;;;;18.19;31.07;99847.98;26929;1223;3026436;-64
2021/09/05 10:09:06;;;;;;;1.70;1.00;;;;;;;18.49;31.29;99841.98;26908;1222;3025867;-65
2021/09/05 10:11:36;;;;;;;4.40;0.80;;;;;;;19.05;31.05;99840.43;26941;1219;3026887;-64
2021/09/05 10:14:05;;;;;;;2.80;0.80;;;;;;;19.56;30.11;99840.07;26893;1219;3027103;-63
2021/09/05 10:16:54;;;;;;;1.20;0.80;;;;;;;19.71;29.29;99842.27;26889;1223;3053498;-61
2021/09/05 10:19:23;;;;;;;4.80;0.80;;;;;;;19.28;29.95;99850.03;26916;1219;3025664;-62
2021/09/05 10:21:52;;;;;;;2.50;0.80;;;;;;;18.59;30.78;99855.34;26915;1222;3054657;-64
2021/09/05 10:24:22;;;;;;;1.70;0.90;;;;;;;18.41;31.32;99855.09;26914;1221;3027556;-64
2021/09/05 10:26:59;;;;;;;3.30;0.80;;;;;;;18.14;31.95;99860.84;26893;1219;3026595;-63
2021/09/05 10:29:28;;;;;;;3.20;1.10;;;;;;;18.02;31.30;99854.91;26902;1219;3052239;-63
2021/09/05 10:31:57;;;;;;;2.50;0.80;;;;;;;18.17;31.24;99858.30;26908;1219;3026546;-67
2021/09/05 10:34:33;;;;;;;1.20;0.70;;;;;;;18.20;30.57;99855.16;26910;1219;3026223;-64
2021/09/05 10:37:13;;;;;;;6.20;0.90;;;;;;;18.49;30.68;99854.77;26896;1219;3051290;-64
2021/09/05 10:40:08;;;;;;;2.00;0.90;;;;;;;18.75;30.51;99845.05;26924;1219;3050079;-63
2021/09/05 10:42:53;;;;;;;1.60;0.80;;;;;;;18.76;29.80;99848.34;26962;1219;3069192;-63
2021/09/05 10:45:30;;;;;;;3.40;1.20;;;;;;;18.62;30.16;99848.52;26921;1219;3051321;-64
2021/09/05 10:47:59;;;;;;;3.50;0.90;;;;;;;18.24;30.14;99846.08;26972;1219;3026412;-65
2021/09/05 10:50:37;;;;;;;1.00;0.70;;;;;;;17.82;30.37;99849.72;26951;1227;3072078;-64
2021/09/05 10:53:14;;;;;;;3.20;1.00;;;;;;;17.92;30.85;99844.03;26908;1219;3048617;-62
2021/09/05 10:56:06;;;;;;;3.70;1.10;;;;;;;18.23;31.12;99841.23;26921;1219;3054655;-64
2021/09/05 10:58:36;;;;;;;4.70;1.30;;;;;;;18.81;29.26;99836.59;26939;1219;3051785;-64
2021/09/05 11:01:19;;;;;;;3.40;1.40;;;;;;;19.28;28.43;99833.92;26944;1219;3026123;-65
2021/09/05 11:04:06;;;;;;;2.70;0.90;;;;;;;19.51;28.20;99831.16;26949;1219;3051595;-63
2021/09/05 11:06:37;;;;;;;3.60;1.20;;;;;;;19.25;29.42;99836.17;26945;1219;3052886;-62
2021/09/05 11:09:23;;;;;;;2.30;1.00;;;;;;;19.25;28.82;99831.59;26893;1219;3026157;-64
2021/09/05 11:11:56;;;;;;;4.20;1.20;;;;;;;19.19;29.62;99830.30;26936;1219;3068437;-61
2021/09/05 11:15:01;;;;;;;2.60;1.20;;;;;;;19.55;28.21;99833.40;33968;1223;3025563;-63
2021/09/05 11:17:52;;;;;;;1.50;0.80;;;;;;;19.37;28.06;99837.20;27063;1225;3055635;-63
2021/09/05 11:20:20;;;;;;;2.30;0.70;;;;;;;19.34;28.39;99830.73;26905;1230;3051735;-63
2021/09/05 11:22:51;;;;;;;2.40;0.80;;;;;;;19.33;28.52;99832.80;26891;1222;3026337;-63
2021/09/05 11:25:24;;;;;;;3.50;1.00;;;;;;;19.09;29.06;99838.06;26820;1224;3026230;-63
2021/09/05 11:28:12;;;;;;;2.70;1.10;;;;;;;18.55;29.07;99849.83;26885;1229;3028822;-63
2021/09/05 11:30:44;;;;;;;4.00;0.70;;;;;;;17.99;29.10;99849.52;26946;1225;3049689;-64
2021/09/05 11:33:15;;;;;;;1.10;0.60;;;;;;;18.15;29.19;99845.29;26917;1225;3026436;-63
2021/09/05 11:35:49;;;;;;;2.00;0.80;;;;;;;18.36;28.15;99835.67;26923;1230;3028154;-63
2021/09/05 11:38:23;;;;;;;1.60;0.60;;;;;;;18.39;28.10;99828.15;26921;1226;3049668;-64
2021/09/05 11:40:54;;;;;;;1.90;1.00;;;;;;;18.36;28.26;99825.08;26916;1225;3026258;-62
2021/09/05 11:43:34;;;;;;;3.70;1.40;;;;;;;18.41;28.95;99832.26;26903;1225;3026361;-63
2021/09/05 11:46:20;;;;;;;7.70;2.30;;;;;;;18.26;29.06;99839.96;26910;1225;3053949;-64
2021/09/05 11:48:56;;;;;;;3.50;1.70;;;;;;;18.35;28.53;99845.04;26920;1226;3055085;-63
2021/09/05 11:51:26;;;;;;;13.90;4.20;;;;;;;18.52;28.02;99835.38;26916;1225;3057085;-60
2021/09/05 11:54:07;;;;;;;5.30;1.90;;;;;;;18.94;27.68;99827.02;26885;1225;3026288;-62